Aptos, CA

7:17 AM PDT on October 01, 2014 (GMT -0700)
Seacliff Beach | Change Station
CLOSE
Current Station
Personal Weather Station
Location: Aptos, CA
Elevation: 100 ft
Nearby Weather Stations

Elev 100 ft 36.97 °N, 121.91 °W | Updated 15 seconds ago

Clear
Clear
51.3 °F
Feels Like 51.3 °F
N
0.0
Wind Variable Wind from North
Gusts 1.0 mph

Today
High -- | Low -- °F
--% Chance of Precip.
Yesterday
High -- | Low -- °F
Precip. -- in
7:03 AM 6:50 PM
Waxing Crescent, 48% visible
Pressure 29.87 in
Visibility 10.0 miles
Clouds Clear
Dew Point 50 °F
Humidity 97%
Rainfall 0.00 in
Snow Depth 1 in , 1 in , 0 in
UV 0 out of 12
Pollen 3.60 out of 12
Air Quality Not available.
Flu Activity Not available.
METAR KWVI 011353Z AUTO 34003KT 10SM CLR 12/10 A2987 RMK AO2 SLP115 T01220100

More Conditions Fewer Conditions

Pressure 29.87 in
Visibility 10.0 miles
Clouds Clear
Dew Point 50 °F
Humidity 97%
Rainfall 0.00 in
Snow Depth 1 in , 1 in , 0 in
UV 0 out of 12
Pollen 3.60 out of 12
Air Quality Not available.
Flu Activity Not available.
METAR KWVI 011353Z AUTO 34003KT 10SM CLR 12/10 A2987 RMK AO2 SLP115 T01220100

More Conditions Fewer Conditions

10-Day Weather Forecast

Almanac

Astronomy

Oct. 01, 2014 Rise Set
Actual Time 7:03 AM PDT 6:50 PM PDT
Civil Twilight 6:37 AM PDT 7:16 PM PDT
Nautical Twilight 6:07 AM PDT 7:46 PM PDT
Astronomical Twilight 5:36 AM PDT 8:16 PM PDT
Moon 2:02 PM PDT No Moon Set
Length of Visible Light 12h 39m
Length of Day
11h 47m
Tomorrow will be 2m 20s shorter.
Waxing Crescent, 48% of the Moon is Illuminated
Today
Waxing Crescent
Oct 1
First Quarter
Oct 8
Full
Oct 15
Last Quarter
Oct 23
New

Today's Extremes

State Highs State Lows

Community

WunderPhotos

Upload Photos

1,757,952 photos uploaded!

Nearby

Snow Depth

Station Depth Elevation
Ebbetts Pass 1 in 8700 ft
Echo Peak 1 in 7800 ft
Independence Lake 0 in 8450 ft
Monitor Pass 1 in 8350 ft
Adin Mountain 0 in 6200 ft

Earthquake Activity

City Distance Mag. Time & Date
Shandon, California 119 miles 2.9 5:34 PM PDT
2014-09-30
East Foothills, California 34 miles 2.6 3:34 PM PDT
2014-09-30
South Dos Palos, California 63 miles 2.7 3:08 PM PDT
2014-09-30
South Dos Palos, California 63 miles 2.5 9:18 PM PDT
2014-09-29
Minimum magnitude displayed is 2.5.

Coastal Water Temperatures

Place Temperature
Monterey, CA 61.0 °F
Redwood City, CA 70.0 °F

Nearby Weather Stations